To NAV CANADA Home Page Login to a new session Search on AWWS site Feedback and Comments Disclaimer Vers la page française équivalente Tips FAQ What's new on the site To the Forecasts and Observations / NOTAM section To "File a Flight Plan" website Publications and other links Update of the User's profile FIC Telephone Numbers My Weather Data Folder Route Weather Data Regional Weather Data Local Weather Data To the Forecasts and Observations / NOTAM section
Request Generated 02/23/2017 at 20:45:56 UTC . Weather information available at that time is displayed.

METAR/TAF

TRENTON/ON    

METAR CYTR 232000Z 22015KT 8SM FEW028 FEW040 14/09 A2963 RMK CF0SC1 SLP037=
METAR CYTR 231900Z 22014G21KT 12SM FEW031 13/09 A2961 RMK CF0 SLP029=
METAR CYTR 231800Z 23016G26KT 12SM FEW013 FEW031 14/11 A2961 RMK SC1SC2 SLP028=

TAF AMD CYTR 231814Z 2318/2418 23015G25KT P6SM SCT015 BKN030 TEMPO
2318/2320 BKN015 OVC030
BECMG 2320/2322 32012KT
FM232200 32012KT P6SM SCT030 TEMPO 2322/2406 BKN030
BECMG 2400/2402 VRB03KT
FM240600 VRB03KT P6SM SCT006 BKN120 TEMPO 2406/2409 3SM BR BKN006
OVC120
FM240900 03005KT 2SM -RA BR OVC005 TEMPO 2409/2412 6SM BR OVC010
FM241200 05010KT 1SM -RA BR OVC003
RMK NXT FCST BY 240000Z=
Your time UTC time
Weather data provided by Environment Canada and NAV CANADA